sensor_id;sensor_type;location;lat;lon;timestamp;P1;durP1;ratioP1;P2;durP2;ratioP2
19780;SDS011;10050;55.492;13.506;2023-11-19T00:00:42;1.10;;;1.10;;
19780;SDS011;10050;55.492;13.506;2023-11-19T00:03:08;1.60;;;1.10;;
19780;SDS011;10050;55.492;13.506;2023-11-19T00:05:33;1.40;;;1.30;;
19780;SDS011;10050;55.492;13.506;2023-11-19T00:07:59;2.77;;;1.40;;
19780;SDS011;10050;55.492;13.506;2023-11-19T00:10:25;1.13;;;1.03;;
19780;SDS011;10050;55.492;13.506;2023-11-19T00:12:50;1.40;;;1.30;;
19780;SDS011;10050;55.492;13.506;2023-11-19T00:15:16;1.60;;;1.50;;
19780;SDS011;10050;55.492;13.506;2023-11-19T00:17:45;1.70;;;1.37;;
19780;SDS011;10050;55.492;13.506;2023-11-19T00:20:16;2.27;;;1.40;;
19780;SDS011;10050;55.492;13.506;2023-11-19T00:22:43;1.90;;;1.60;;
19780;SDS011;10050;55.492;13.506;2023-11-19T00:25:09;2.53;;;1.40;;
19780;SDS011;10050;55.492;13.506;2023-11-19T00:27:38;1.50;;;1.50;;
19780;SDS011;10050;55.492;13.506;2023-11-19T00:30:04;3.20;;;1.33;;
19780;SDS011;10050;55.492;13.506;2023-11-19T00:32:34;2.70;;;1.30;;
19780;SDS011;10050;55.492;13.506;2023-11-19T00:35:04;2.43;;;1.53;;
19780;SDS011;10050;55.492;13.506;2023-11-19T00:37:30;1.80;;;1.70;;
19780;SDS011;10050;55.492;13.506;2023-11-19T00:39:56;1.93;;;1.50;;
19780;SDS011;10050;55.492;13.506;2023-11-19T00:42:23;2.57;;;1.60;;
19780;SDS011;10050;55.492;13.506;2023-11-19T00:44:49;1.40;;;1.30;;
19780;SDS011;10050;55.492;13.506;2023-11-19T00:47:15;2.10;;;1.90;;
19780;SDS011;10050;55.492;13.506;2023-11-19T00:49:41;2.20;;;2.00;;
19780;SDS011;10050;55.492;13.506;2023-11-19T00:52:07;1.90;;;1.70;;
19780;SDS011;10050;55.492;13.506;2023-11-19T00:54:33;2.47;;;2.27;;
19780;SDS011;10050;55.492;13.506;2023-11-19T00:56:59;2.13;;;2.00;;
19780;SDS011;10050;55.492;13.506;2023-11-19T00:59:26;3.60;;;2.20;;
19780;SDS011;10050;55.492;13.506;2023-11-19T01:01:53;2.83;;;2.60;;
19780;SDS011;10050;55.492;13.506;2023-11-19T01:04:19;2.90;;;2.47;;
19780;SDS011;10050;55.492;13.506;2023-11-19T01:06:45;2.80;;;2.60;;
19780;SDS011;10050;55.492;13.506;2023-11-19T01:09:10;3.07;;;2.60;;
19780;SDS011;10050;55.492;13.506;2023-11-19T01:11:36;3.07;;;2.60;;
19780;SDS011;10050;55.492;13.506;2023-11-19T01:14:02;3.63;;;2.37;;
19780;SDS011;10050;55.492;13.506;2023-11-19T01:16:27;3.57;;;2.97;;
19780;SDS011;10050;55.492;13.506;2023-11-19T01:18:53;3.40;;;2.57;;
19780;SDS011;10050;55.492;13.506;2023-11-19T01:21:19;2.93;;;2.43;;
19780;SDS011;10050;55.492;13.506;2023-11-19T01:23:44;2.73;;;2.53;;
19780;SDS011;10050;55.492;13.506;2023-11-19T01:26:10;4.50;;;3.10;;
19780;SDS011;10050;55.492;13.506;2023-11-19T01:28:37;2.63;;;2.43;;
19780;SDS011;10050;55.492;13.506;2023-11-19T01:31:10;4.93;;;2.83;;
19780;SDS011;10050;55.492;13.506;2023-11-19T01:33:36;3.47;;;2.77;;
19780;SDS011;10050;55.492;13.506;2023-11-19T01:36:02;3.57;;;2.83;;
19780;SDS011;10050;55.492;13.506;2023-11-19T01:38:29;5.17;;;2.97;;
19780;SDS011;10050;55.492;13.506;2023-11-19T01:40:56;4.73;;;3.13;;
19780;SDS011;10050;55.492;13.506;2023-11-19T01:43:33;5.80;;;4.00;;
19780;SDS011;10050;55.492;13.506;2023-11-19T01:45:59;6.53;;;4.33;;
19780;SDS011;10050;55.492;13.506;2023-11-19T01:48:25;10.03;;;5.23;;
19780;SDS011;10050;55.492;13.506;2023-11-19T01:50:51;12.40;;;6.40;;
19780;SDS011;10050;55.492;13.506;2023-11-19T01:53:18;9.73;;;6.33;;
19780;SDS011;10050;55.492;13.506;2023-11-19T01:55:46;11.27;;;7.07;;
19780;SDS011;10050;55.492;13.506;2023-11-19T01:58:12;14.13;;;6.87;;
19780;SDS011;10050;55.492;13.506;2023-11-19T02:00:38;9.67;;;5.83;;
19780;SDS011;10050;55.492;13.506;2023-11-19T02:03:05;9.90;;;5.73;;
19780;SDS011;10050;55.492;13.506;2023-11-19T02:05:33;9.50;;;4.67;;
19780;SDS011;10050;55.492;13.506;2023-11-19T02:08:00;7.57;;;4.40;;
19780;SDS011;10050;55.492;13.506;2023-11-19T02:10:26;7.47;;;4.23;;
19780;SDS011;10050;55.492;13.506;2023-11-19T02:12:51;8.57;;;5.00;;
19780;SDS011;10050;55.492;13.506;2023-11-19T02:15:17;8.70;;;5.30;;
19780;SDS011;10050;55.492;13.506;2023-11-19T02:17:49;10.37;;;5.00;;
19780;SDS011;10050;55.492;13.506;2023-11-19T02:20:18;8.93;;;6.37;;
19780;SDS011;10050;55.492;13.506;2023-11-19T02:22:45;10.87;;;6.43;;
19780;SDS011;10050;55.492;13.506;2023-11-19T02:25:27;10.37;;;6.60;;
19780;SDS011;10050;55.492;13.506;2023-11-19T02:28:00;11.63;;;8.03;;
19780;SDS011;10050;55.492;13.506;2023-11-19T02:30:27;13.00;;;9.00;;
19780;SDS011;10050;55.492;13.506;2023-11-19T02:32:54;15.27;;;9.80;;
19780;SDS011;10050;55.492;13.506;2023-11-19T02:35:27;13.07;;;9.70;;
19780;SDS011;10050;55.492;13.506;2023-11-19T02:37:56;11.77;;;8.73;;
19780;SDS011;10050;55.492;13.506;2023-11-19T02:40:22;12.63;;;9.10;;
19780;SDS011;10050;55.492;13.506;2023-11-19T02:42:54;11.50;;;9.07;;
19780;SDS011;10050;55.492;13.506;2023-11-19T02:45:20;15.53;;;10.17;;
19780;SDS011;10050;55.492;13.506;2023-11-19T02:47:51;17.10;;;11.37;;
19780;SDS011;10050;55.492;13.506;2023-11-19T02:50:17;16.43;;;10.70;;
19780;SDS011;10050;55.492;13.506;2023-11-19T02:52:50;16.73;;;11.60;;
19780;SDS011;10050;55.492;13.506;2023-11-19T02:55:18;19.47;;;11.30;;
19780;SDS011;10050;55.492;13.506;2023-11-19T02:57:44;15.53;;;11.37;;
19780;SDS011;10050;55.492;13.506;2023-11-19T03:00:14;18.23;;;10.90;;
19780;SDS011;10050;55.492;13.506;2023-11-19T03:02:41;16.73;;;9.87;;
19780;SDS011;10050;55.492;13.506;2023-11-19T03:05:14;10.33;;;8.47;;
19780;SDS011;10050;55.492;13.506;2023-11-19T03:07:44;9.93;;;8.10;;
19780;SDS011;10050;55.492;13.506;2023-11-19T03:10:10;11.67;;;8.27;;
19780;SDS011;10050;55.492;13.506;2023-11-19T03:12:39;10.67;;;8.50;;
19780;SDS011;10050;55.492;13.506;2023-11-19T03:15:05;11.47;;;8.03;;
19780;SDS011;10050;55.492;13.506;2023-11-19T03:17:32;11.37;;;8.07;;
19780;SDS011;10050;55.492;13.506;2023-11-19T03:19:59;8.20;;;7.03;;
19780;SDS011;10050;55.492;13.506;2023-11-19T03:22:26;7.87;;;6.70;;
19780;SDS011;10050;55.492;13.506;2023-11-19T03:24:51;10.70;;;5.83;;
19780;SDS011;10050;55.492;13.506;2023-11-19T03:27:17;7.53;;;6.30;;
19780;SDS011;10050;55.492;13.506;2023-11-19T03:29:43;8.13;;;6.03;;
19780;SDS011;10050;55.492;13.506;2023-11-19T03:32:08;9.17;;;6.53;;
19780;SDS011;10050;55.492;13.506;2023-11-19T03:34:34;9.50;;;5.80;;
19780;SDS011;10050;55.492;13.506;2023-11-19T03:36:59;9.63;;;6.07;;
19780;SDS011;10050;55.492;13.506;2023-11-19T03:39:25;7.87;;;5.50;;
19780;SDS011;10050;55.492;13.506;2023-11-19T03:41:52;7.33;;;5.67;;
19780;SDS011;10050;55.492;13.506;2023-11-19T03:44:17;9.13;;;5.57;;
19780;SDS011;10050;55.492;13.506;2023-11-19T03:46:44;10.00;;;5.50;;
19780;SDS011;10050;55.492;13.506;2023-11-19T03:49:09;7.80;;;5.30;;
19780;SDS011;10050;55.492;13.506;2023-11-19T03:51:37;7.90;;;5.73;;
19780;SDS011;10050;55.492;13.506;2023-11-19T03:54:02;7.27;;;5.80;;
19780;SDS011;10050;55.492;13.506;2023-11-19T03:56:28;9.33;;;5.50;;
19780;SDS011;10050;55.492;13.506;2023-11-19T03:58:56;6.70;;;5.70;;
19780;SDS011;10050;55.492;13.506;2023-11-19T04:01:21;7.87;;;5.33;;
19780;SDS011;10050;55.492;13.506;2023-11-19T04:03:47;6.37;;;5.50;;
19780;SDS011;10050;55.492;13.506;2023-11-19T04:06:13;6.17;;;5.57;;
19780;SDS011;10050;55.492;13.506;2023-11-19T04:08:39;7.47;;;5.80;;
19780;SDS011;10050;55.492;13.506;2023-11-19T04:11:04;8.03;;;5.37;;
19780;SDS011;10050;55.492;13.506;2023-11-19T04:13:30;9.50;;;5.93;;
19780;SDS011;10050;55.492;13.506;2023-11-19T04:15:56;6.23;;;5.60;;
19780;SDS011;10050;55.492;13.506;2023-11-19T04:18:22;8.00;;;6.10;;
19780;SDS011;10050;55.492;13.506;2023-11-19T04:20:48;7.70;;;5.80;;
19780;SDS011;10050;55.492;13.506;2023-11-19T04:23:13;8.40;;;5.80;;
19780;SDS011;10050;55.492;13.506;2023-11-19T04:25:39;11.43;;;6.50;;
19780;SDS011;10050;55.492;13.506;2023-11-19T04:28:04;12.27;;;7.30;;
19780;SDS011;10050;55.492;13.506;2023-11-19T04:30:30;9.73;;;6.90;;
19780;SDS011;10050;55.492;13.506;2023-11-19T04:32:56;9.70;;;7.50;;
19780;SDS011;10050;55.492;13.506;2023-11-19T04:35:23;11.90;;;7.43;;
19780;SDS011;10050;55.492;13.506;2023-11-19T04:37:48;12.17;;;7.57;;
19780;SDS011;10050;55.492;13.506;2023-11-19T04:40:14;9.63;;;7.60;;
19780;SDS011;10050;55.492;13.506;2023-11-19T04:42:39;7.57;;;6.83;;
19780;SDS011;10050;55.492;13.506;2023-11-19T04:45:05;9.83;;;7.17;;
19780;SDS011;10050;55.492;13.506;2023-11-19T04:47:32;9.80;;;7.43;;
19780;SDS011;10050;55.492;13.506;2023-11-19T04:49:59;11.43;;;8.17;;
19780;SDS011;10050;55.492;13.506;2023-11-19T04:52:24;12.20;;;7.87;;
19780;SDS011;10050;55.492;13.506;2023-11-19T04:54:50;12.63;;;7.97;;
19780;SDS011;10050;55.492;13.506;2023-11-19T04:57:16;10.83;;;8.20;;
19780;SDS011;10050;55.492;13.506;2023-11-19T04:59:42;12.03;;;9.57;;
19780;SDS011;10050;55.492;13.506;2023-11-19T05:02:08;11.53;;;9.27;;
19780;SDS011;10050;55.492;13.506;2023-11-19T05:04:34;10.63;;;8.10;;
19780;SDS011;10050;55.492;13.506;2023-11-19T05:07:00;10.40;;;8.13;;
19780;SDS011;10050;55.492;13.506;2023-11-19T05:09:26;12.27;;;8.17;;
19780;SDS011;10050;55.492;13.506;2023-11-19T05:11:52;11.33;;;8.77;;
19780;SDS011;10050;55.492;13.506;2023-11-19T05:14:17;12.97;;;8.57;;
19780;SDS011;10050;55.492;13.506;2023-11-19T05:16:47;11.03;;;7.73;;
19780;SDS011;10050;55.492;13.506;2023-11-19T05:19:12;11.90;;;9.50;;
19780;SDS011;10050;55.492;13.506;2023-11-19T05:21:41;14.47;;;9.47;;
19780;SDS011;10050;55.492;13.506;2023-11-19T05:24:07;14.60;;;10.43;;
19780;SDS011;10050;55.492;13.506;2023-11-19T05:26:33;12.73;;;10.00;;
19780;SDS011;10050;55.492;13.506;2023-11-19T05:28:59;14.60;;;10.27;;
19780;SDS011;10050;55.492;13.506;2023-11-19T05:31:24;13.83;;;9.90;;
19780;SDS011;10050;55.492;13.506;2023-11-19T05:33:50;13.13;;;9.70;;
19780;SDS011;10050;55.492;13.506;2023-11-19T05:36:16;13.23;;;10.53;;
19780;SDS011;10050;55.492;13.506;2023-11-19T05:38:42;11.70;;;9.43;;
19780;SDS011;10050;55.492;13.506;2023-11-19T05:41:07;13.40;;;10.40;;
19780;SDS011;10050;55.492;13.506;2023-11-19T05:43:33;16.17;;;9.03;;
19780;SDS011;10050;55.492;13.506;2023-11-19T05:45:59;12.33;;;8.57;;
19780;SDS011;10050;55.492;13.506;2023-11-19T05:48:26;12.97;;;9.20;;
19780;SDS011;10050;55.492;13.506;2023-11-19T05:50:52;13.27;;;8.80;;
19780;SDS011;10050;55.492;13.506;2023-11-19T05:53:18;9.90;;;7.37;;
19780;SDS011;10050;55.492;13.506;2023-11-19T05:55:44;11.37;;;7.47;;
19780;SDS011;10050;55.492;13.506;2023-11-19T05:58:23;10.03;;;6.57;;
19780;SDS011;10050;55.492;13.506;2023-11-19T06:00:56;9.50;;;6.87;;
19780;SDS011;10050;55.492;13.506;2023-11-19T06:03:22;10.60;;;7.73;;
19780;SDS011;10050;55.492;13.506;2023-11-19T06:05:48;10.70;;;7.63;;
19780;SDS011;10050;55.492;13.506;2023-11-19T06:08:15;11.17;;;8.50;;
19780;SDS011;10050;55.492;13.506;2023-11-19T06:10:41;14.17;;;8.80;;
19780;SDS011;10050;55.492;13.506;2023-11-19T06:13:08;15.47;;;9.33;;
19780;SDS011;10050;55.492;13.506;2023-11-19T06:15:36;14.47;;;9.33;;
19780;SDS011;10050;55.492;13.506;2023-11-19T06:18:02;14.00;;;10.00;;
19780;SDS011;10050;55.492;13.506;2023-11-19T06:20:32;13.60;;;10.17;;
19780;SDS011;10050;55.492;13.506;2023-11-19T06:22:58;16.83;;;10.10;;
19780;SDS011;10050;55.492;13.506;2023-11-19T06:25:25;18.90;;;9.27;;
19780;SDS011;10050;55.492;13.506;2023-11-19T06:27:51;16.60;;;9.33;;
19780;SDS011;10050;55.492;13.506;2023-11-19T06:30:17;12.93;;;9.60;;
19780;SDS011;10050;55.492;13.506;2023-11-19T06:32:44;14.10;;;9.47;;
19780;SDS011;10050;55.492;13.506;2023-11-19T06:35:09;12.73;;;8.30;;
19780;SDS011;10050;55.492;13.506;2023-11-19T06:37:36;12.57;;;8.73;;
19780;SDS011;10050;55.492;13.506;2023-11-19T06:40:05;10.07;;;7.90;;
19780;SDS011;10050;55.492;13.506;2023-11-19T06:42:31;11.17;;;7.80;;
19780;SDS011;10050;55.492;13.506;2023-11-19T06:45:01;10.43;;;7.97;;
19780;SDS011;10050;55.492;13.506;2023-11-19T06:47:28;10.73;;;7.40;;
19780;SDS011;10050;55.492;13.506;2023-11-19T06:49:54;12.97;;;7.53;;
19780;SDS011;10050;55.492;13.506;2023-11-19T06:52:20;12.10;;;8.10;;
19780;SDS011;10050;55.492;13.506;2023-11-19T06:54:46;13.37;;;7.90;;
19780;SDS011;10050;55.492;13.506;2023-11-19T06:57:12;12.17;;;7.20;;
19780;SDS011;10050;55.492;13.506;2023-11-19T06:59:38;10.70;;;7.13;;
19780;SDS011;10050;55.492;13.506;2023-11-19T07:02:05;9.20;;;7.17;;
19780;SDS011;10050;55.492;13.506;2023-11-19T07:04:31;9.17;;;7.23;;
19780;SDS011;10050;55.492;13.506;2023-11-19T07:06:58;10.73;;;7.40;;
19780;SDS011;10050;55.492;13.506;2023-11-19T07:09:24;9.83;;;7.37;;
19780;SDS011;10050;55.492;13.506;2023-11-19T07:11:50;9.17;;;7.13;;
19780;SDS011;10050;55.492;13.506;2023-11-19T07:14:17;11.73;;;7.43;;
19780;SDS011;10050;55.492;13.506;2023-11-19T07:16:46;9.37;;;7.07;;
19780;SDS011;10050;55.492;13.506;2023-11-19T07:19:12;10.57;;;7.00;;
19780;SDS011;10050;55.492;13.506;2023-11-19T07:21:40;8.27;;;6.20;;
19780;SDS011;10050;55.492;13.506;2023-11-19T07:24:09;8.53;;;5.80;;
19780;SDS011;10050;55.492;13.506;2023-11-19T07:26:35;6.20;;;4.30;;
19780;SDS011;10050;55.492;13.506;2023-11-19T07:29:04;7.50;;;5.23;;
19780;SDS011;10050;55.492;13.506;2023-11-19T07:31:32;7.40;;;5.13;;
19780;SDS011;10050;55.492;13.506;2023-11-19T07:33:58;7.70;;;5.43;;
19780;SDS011;10050;55.492;13.506;2023-11-19T07:36:23;5.27;;;4.77;;
19780;SDS011;10050;55.492;13.506;2023-11-19T07:38:52;7.90;;;5.33;;
19780;SDS011;10050;55.492;13.506;2023-11-19T07:41:18;6.93;;;5.33;;
19780;SDS011;10050;55.492;13.506;2023-11-19T07:43:45;8.57;;;4.83;;
19780;SDS011;10050;55.492;13.506;2023-11-19T07:46:11;7.37;;;4.43;;
19780;SDS011;10050;55.492;13.506;2023-11-19T07:48:40;5.10;;;4.60;;
19780;SDS011;10050;55.492;13.506;2023-11-19T07:51:07;5.87;;;4.33;;
19780;SDS011;10050;55.492;13.506;2023-11-19T07:53:33;6.67;;;4.37;;
19780;SDS011;10050;55.492;13.506;2023-11-19T07:55:59;7.43;;;3.97;;
19780;SDS011;10050;55.492;13.506;2023-11-19T07:58:25;4.73;;;3.63;;
19780;SDS011;10050;55.492;13.506;2023-11-19T08:00:51;4.93;;;3.40;;
19780;SDS011;10050;55.492;13.506;2023-11-19T08:03:17;5.93;;;3.77;;
19780;SDS011;10050;55.492;13.506;2023-11-19T08:05:44;6.80;;;4.13;;
19780;SDS011;10050;55.492;13.506;2023-11-19T08:08:10;6.87;;;4.77;;
19780;SDS011;10050;55.492;13.506;2023-11-19T08:10:36;6.83;;;4.97;;
19780;SDS011;10050;55.492;13.506;2023-11-19T08:13:04;8.50;;;4.70;;
19780;SDS011;10050;55.492;13.506;2023-11-19T08:15:30;6.83;;;4.87;;
19780;SDS011;10050;55.492;13.506;2023-11-19T08:17:56;5.37;;;4.57;;
19780;SDS011;10050;55.492;13.506;2023-11-19T08:20:22;6.40;;;4.30;;
19780;SDS011;10050;55.492;13.506;2023-11-19T08:22:48;8.67;;;3.97;;
19780;SDS011;10050;55.492;13.506;2023-11-19T08:25:14;7.13;;;4.27;;
19780;SDS011;10050;55.492;13.506;2023-11-19T08:27:40;4.33;;;3.60;;
19780;SDS011;10050;55.492;13.506;2023-11-19T08:30:06;3.27;;;2.97;;
19780;SDS011;10050;55.492;13.506;2023-11-19T08:32:32;7.23;;;4.37;;
19780;SDS011;10050;55.492;13.506;2023-11-19T08:34:58;4.07;;;3.23;;
19780;SDS011;10050;55.492;13.506;2023-11-19T08:37:26;6.73;;;3.63;;
19780;SDS011;10050;55.492;13.506;2023-11-19T08:39:53;5.80;;;3.93;;
19780;SDS011;10050;55.492;13.506;2023-11-19T08:42:18;8.17;;;4.77;;
19780;SDS011;10050;55.492;13.506;2023-11-19T08:44:48;13.17;;;4.57;;
19780;SDS011;10050;55.492;13.506;2023-11-19T08:47:15;7.40;;;4.77;;
19780;SDS011;10050;55.492;13.506;2023-11-19T08:49:44;7.83;;;4.60;;
19780;SDS011;10050;55.492;13.506;2023-11-19T08:52:10;8.87;;;4.77;;
19780;SDS011;10050;55.492;13.506;2023-11-19T08:54:36;6.13;;;4.67;;
19780;SDS011;10050;55.492;13.506;2023-11-19T08:57:02;8.97;;;4.90;;
19780;SDS011;10050;55.492;13.506;2023-11-19T08:59:29;5.90;;;5.07;;
19780;SDS011;10050;55.492;13.506;2023-11-19T09:01:55;8.60;;;5.23;;
19780;SDS011;10050;55.492;13.506;2023-11-19T09:04:21;8.23;;;4.53;;
19780;SDS011;10050;55.492;13.506;2023-11-19T09:06:50;5.03;;;4.50;;
19780;SDS011;10050;55.492;13.506;2023-11-19T09:09:16;7.50;;;5.23;;
19780;SDS011;10050;55.492;13.506;2023-11-19T09:11:45;8.90;;;4.97;;
19780;SDS011;10050;55.492;13.506;2023-11-19T09:14:11;7.53;;;4.93;;
19780;SDS011;10050;55.492;13.506;2023-11-19T09:16:37;6.10;;;3.93;;
19780;SDS011;10050;55.492;13.506;2023-11-19T09:19:05;5.70;;;4.90;;
19780;SDS011;10050;55.492;13.506;2023-11-19T09:21:30;5.50;;;4.53;;
19780;SDS011;10050;55.492;13.506;2023-11-19T09:23:56;6.77;;;5.20;;
19780;SDS011;10050;55.492;13.506;2023-11-19T09:26:22;4.70;;;4.30;;
19780;SDS011;10050;55.492;13.506;2023-11-19T09:28:50;6.13;;;4.90;;
19780;SDS011;10050;55.492;13.506;2023-11-19T09:31:16;5.93;;;4.00;;
19780;SDS011;10050;55.492;13.506;2023-11-19T09:33:53;4.30;;;3.90;;
19780;SDS011;10050;55.492;13.506;2023-11-19T09:36:18;4.00;;;2.90;;
19780;SDS011;10050;55.492;13.506;2023-11-19T09:38:44;4.57;;;2.43;;
19780;SDS011;10050;55.492;13.506;2023-11-19T09:41:10;3.57;;;2.37;;
19780;SDS011;10050;55.492;13.506;2023-11-19T09:43:41;8.03;;;2.20;;
19780;SDS011;10050;55.492;13.506;2023-11-19T09:46:10;3.73;;;2.17;;
19780;SDS011;10050;55.492;13.506;2023-11-19T09:48:41;4.63;;;2.20;;
19780;SDS011;10050;55.492;13.506;2023-11-19T09:51:08;2.13;;;1.80;;
19780;SDS011;10050;55.492;13.506;2023-11-19T09:53:35;2.57;;;2.23;;
19780;SDS011;10050;55.492;13.506;2023-11-19T09:56:02;5.30;;;2.27;;
19780;SDS011;10050;55.492;13.506;2023-11-19T09:58:29;2.57;;;2.00;;
19780;SDS011;10050;55.492;13.506;2023-11-19T10:00:58;5.03;;;2.00;;
19780;SDS011;10050;55.492;13.506;2023-11-19T10:03:25;2.07;;;1.77;;
19780;SDS011;10050;55.492;13.506;2023-11-19T10:05:52;1.90;;;1.80;;
19780;SDS011;10050;55.492;13.506;2023-11-19T10:08:22;1.67;;;1.57;;
19780;SDS011;10050;55.492;13.506;2023-11-19T10:10:50;1.77;;;1.67;;
19780;SDS011;10050;55.492;13.506;2023-11-19T10:13:17;2.73;;;1.57;;
19780;SDS011;10050;55.492;13.506;2023-11-19T10:15:45;4.70;;;2.17;;
19780;SDS011;10050;55.492;13.506;2023-11-19T10:18:13;4.13;;;2.10;;
19780;SDS011;10050;55.492;13.506;2023-11-19T10:20:40;6.73;;;2.37;;
19780;SDS011;10050;55.492;13.506;2023-11-19T10:23:06;2.60;;;1.80;;
19780;SDS011;10050;55.492;13.506;2023-11-19T10:25:32;3.10;;;2.13;;
19780;SDS011;10050;55.492;13.506;2023-11-19T10:27:59;7.03;;;2.13;;
19780;SDS011;10050;55.492;13.506;2023-11-19T10:30:26;6.63;;;1.90;;
19780;SDS011;10050;55.492;13.506;2023-11-19T10:35:50;3.00;;;2.10;;
19780;SDS011;10050;55.492;13.506;2023-11-19T10:38:21;3.73;;;1.93;;
19780;SDS011;10050;55.492;13.506;2023-11-19T10:40:47;1.87;;;1.60;;
19780;SDS011;10050;55.492;13.506;2023-11-19T10:43:17;3.57;;;1.90;;
19780;SDS011;10050;55.492;13.506;2023-11-19T10:45:50;5.30;;;1.73;;
19780;SDS011;10050;55.492;13.506;2023-11-19T10:48:16;4.30;;;2.00;;
19780;SDS011;10050;55.492;13.506;2023-11-19T10:50:43;3.80;;;1.90;;
19780;SDS011;10050;55.492;13.506;2023-11-19T10:53:10;2.60;;;1.67;;
19780;SDS011;10050;55.492;13.506;2023-11-19T10:55:43;1.90;;;1.60;;
19780;SDS011;10050;55.492;13.506;2023-11-19T10:58:12;3.03;;;1.73;;
19780;SDS011;10050;55.492;13.506;2023-11-19T11:00:57;1.60;;;1.50;;
19780;SDS011;10050;55.492;13.506;2023-11-19T11:03:29;2.97;;;1.80;;
19780;SDS011;10050;55.492;13.506;2023-11-19T11:06:00;2.80;;;2.20;;
19780;SDS011;10050;55.492;13.506;2023-11-19T11:08:29;2.50;;;2.30;;
19780;SDS011;10050;55.492;13.506;2023-11-19T11:10:56;2.23;;;1.60;;
19780;SDS011;10050;55.492;13.506;2023-11-19T11:13:23;4.80;;;1.90;;
19780;SDS011;10050;55.492;13.506;2023-11-19T11:15:50;2.50;;;1.70;;
19780;SDS011;10050;55.492;13.506;2023-11-19T11:18:19;2.10;;;1.80;;
19780;SDS011;10050;55.492;13.506;2023-11-19T11:20:44;4.03;;;1.60;;
19780;SDS011;10050;55.492;13.506;2023-11-19T11:29:05;3.67;;;1.83;;
19780;SDS011;10050;55.492;13.506;2023-11-19T11:39:46;2.30;;;1.80;;
19780;SDS011;10050;55.492;13.506;2023-11-19T11:50:07;1.90;;;1.80;;
19780;SDS011;10050;55.492;13.506;2023-11-19T11:55:37;3.73;;;1.80;;
19780;SDS011;10050;55.492;13.506;2023-11-19T11:58:17;3.40;;;2.97;;
19780;SDS011;10050;55.492;13.506;2023-11-19T12:00:57;3.10;;;1.90;;
19780;SDS011;10050;55.492;13.506;2023-11-19T12:03:26;2.60;;;2.40;;
19780;SDS011;10050;55.492;13.506;2023-11-19T12:05:53;4.13;;;3.73;;
19780;SDS011;10050;55.492;13.506;2023-11-19T12:08:19;5.90;;;4.27;;
19780;SDS011;10050;55.492;13.506;2023-11-19T12:10:52;3.30;;;2.17;;
19780;SDS011;10050;55.492;13.506;2023-11-19T12:13:23;2.43;;;1.90;;
19780;SDS011;10050;55.492;13.506;2023-11-19T12:18:26;3.00;;;1.73;;
19780;SDS011;10050;55.492;13.506;2023-11-19T12:20:53;3.90;;;2.10;;
19780;SDS011;10050;55.492;13.506;2023-11-19T12:23:19;2.90;;;1.70;;
19780;SDS011;10050;55.492;13.506;2023-11-19T12:25:44;1.73;;;1.60;;
19780;SDS011;10050;55.492;13.506;2023-11-19T12:28:14;3.50;;;1.93;;
19780;SDS011;10050;55.492;13.506;2023-11-19T12:30:43;2.87;;;1.90;;
19780;SDS011;10050;55.492;13.506;2023-11-19T12:33:09;3.53;;;1.80;;
19780;SDS011;10050;55.492;13.506;2023-11-19T12:35:39;2.23;;;1.70;;
19780;SDS011;10050;55.492;13.506;2023-11-19T12:38:05;3.73;;;1.90;;
19780;SDS011;10050;55.492;13.506;2023-11-19T12:40:31;1.83;;;1.73;;
19780;SDS011;10050;55.492;13.506;2023-11-19T12:42:57;3.90;;;1.73;;
19780;SDS011;10050;55.492;13.506;2023-11-19T12:45:24;4.83;;;2.13;;
19780;SDS011;10050;55.492;13.506;2023-11-19T12:47:50;2.17;;;1.97;;
19780;SDS011;10050;55.492;13.506;2023-11-19T12:53:47;2.20;;;1.80;;
19780;SDS011;10050;55.492;13.506;2023-11-19T12:56:15;2.13;;;1.70;;
19780;SDS011;10050;55.492;13.506;2023-11-19T12:58:41;4.13;;;1.83;;
19780;SDS011;10050;55.492;13.506;2023-11-19T13:01:08;3.37;;;1.80;;
19780;SDS011;10050;55.492;13.506;2023-11-19T13:03:37;2.47;;;2.20;;
19780;SDS011;10050;55.492;13.506;2023-11-19T13:06:07;2.03;;;1.83;;
19780;SDS011;10050;55.492;13.506;2023-11-19T13:08:44;1.97;;;1.87;;
19780;SDS011;10050;55.492;13.506;2023-11-19T13:11:11;2.23;;;2.03;;
19780;SDS011;10050;55.492;13.506;2023-11-19T13:16:23;3.37;;;2.07;;
19780;SDS011;10050;55.492;13.506;2023-11-19T13:18:51;3.00;;;1.97;;
19780;SDS011;10050;55.492;13.506;2023-11-19T13:21:17;2.80;;;1.97;;
19780;SDS011;10050;55.492;13.506;2023-11-19T13:23:43;2.37;;;1.83;;
19780;SDS011;10050;55.492;13.506;2023-11-19T13:26:09;3.73;;;2.23;;
19780;SDS011;10050;55.492;13.506;2023-11-19T13:28:36;1.80;;;1.70;;
19780;SDS011;10050;55.492;13.506;2023-11-19T13:31:03;5.03;;;2.40;;
19780;SDS011;10050;55.492;13.506;2023-11-19T13:33:30;2.07;;;1.93;;
19780;SDS011;10050;55.492;13.506;2023-11-19T13:35:55;1.67;;;1.57;;
19780;SDS011;10050;55.492;13.506;2023-11-19T13:38:21;2.97;;;2.10;;
19780;SDS011;10050;55.492;13.506;2023-11-19T13:40:51;4.03;;;2.07;;
19780;SDS011;10050;55.492;13.506;2023-11-19T13:43:16;2.30;;;1.73;;
19780;SDS011;10050;55.492;13.506;2023-11-19T13:45:42;3.33;;;2.20;;
19780;SDS011;10050;55.492;13.506;2023-11-19T13:48:08;2.67;;;1.60;;
19780;SDS011;10050;55.492;13.506;2023-11-19T13:50:34;2.90;;;1.80;;
19780;SDS011;10050;55.492;13.506;2023-11-19T13:53:00;2.23;;;2.03;;
19780;SDS011;10050;55.492;13.506;2023-11-19T13:55:25;2.37;;;2.00;;
19780;SDS011;10050;55.492;13.506;2023-11-19T13:57:54;4.50;;;1.90;;
19780;SDS011;10050;55.492;13.506;2023-11-19T14:00:20;2.60;;;1.90;;
19780;SDS011;10050;55.492;13.506;2023-11-19T14:02:48;2.87;;;1.80;;
19780;SDS011;10050;55.492;13.506;2023-11-19T14:05:14;2.23;;;2.03;;
19780;SDS011;10050;55.492;13.506;2023-11-19T14:07:42;3.63;;;2.00;;
19780;SDS011;10050;55.492;13.506;2023-11-19T14:10:08;3.57;;;2.00;;
19780;SDS011;10050;55.492;13.506;2023-11-19T14:12:36;3.30;;;1.83;;
19780;SDS011;10050;55.492;13.506;2023-11-19T14:15:05;1.90;;;1.80;;
19780;SDS011;10050;55.492;13.506;2023-11-19T14:17:32;2.70;;;2.00;;
19780;SDS011;10050;55.492;13.506;2023-11-19T14:19:59;2.67;;;2.00;;
19780;SDS011;10050;55.492;13.506;2023-11-19T14:22:25;2.97;;;2.10;;
19780;SDS011;10050;55.492;13.506;2023-11-19T14:24:50;3.97;;;2.20;;
19780;SDS011;10050;55.492;13.506;2023-11-19T14:27:16;6.70;;;2.27;;
19780;SDS011;10050;55.492;13.506;2023-11-19T14:29:42;4.33;;;2.30;;
19780;SDS011;10050;55.492;13.506;2023-11-19T14:32:10;3.63;;;2.27;;
19780;SDS011;10050;55.492;13.506;2023-11-19T14:34:35;3.97;;;2.13;;
19780;SDS011;10050;55.492;13.506;2023-11-19T14:37:01;2.53;;;1.80;;
19780;SDS011;10050;55.492;13.506;2023-11-19T14:39:27;3.67;;;1.90;;
19780;SDS011;10050;55.492;13.506;2023-11-19T14:41:55;5.17;;;1.93;;
19780;SDS011;10050;55.492;13.506;2023-11-19T14:44:25;2.57;;;2.33;;
19780;SDS011;10050;55.492;13.506;2023-11-19T14:46:52;4.07;;;2.50;;
19780;SDS011;10050;55.492;13.506;2023-11-19T14:49:17;3.27;;;2.90;;
19780;SDS011;10050;55.492;13.506;2023-11-19T14:51:43;2.70;;;2.50;;
19780;SDS011;10050;55.492;13.506;2023-11-19T14:54:09;3.27;;;2.73;;
19780;SDS011;10050;55.492;13.506;2023-11-19T14:56:35;3.07;;;2.73;;
19780;SDS011;10050;55.492;13.506;2023-11-19T14:59:00;3.43;;;2.97;;
19780;SDS011;10050;55.492;13.506;2023-11-19T15:01:29;3.33;;;3.03;;
19780;SDS011;10050;55.492;13.506;2023-11-19T15:03:55;3.23;;;2.33;;
19780;SDS011;10050;55.492;13.506;2023-11-19T15:06:24;6.63;;;2.93;;